Terminal Aerodrome Forecast
Issued by NWS

Home | Current Version | Previous Version | Graphics & Text | Print | Product List | Glossary On
Versions: 1 2 3 4 5 6 7 8 9 10 11 12 13 14 15
000
FTUS43 KMPX 081722
TAFRWF
TAF
KRWF 081722Z 0818/0918 30014KT P6SM -SN SCT025 BKN040
      TEMPO 0818/0822 BKN030
     FM090000 31011KT P6SM BKN025
     FM090600 30006KT P6SM SCT025=

USA.gov is the U.S. government's official web portal to all federal, state and local government web resources and services.